Time;durP1;ratioP1;P1;durP2;ratioP2;P2;SDS_P1;SDS_P2;PMS_P1;PMS_P2;Temp;Humidity;BMP_temperature;BMP_pressure;BME280_temperature;BME280_humidity;BME280_pressure;Samples;Min_cycle;Max_cycle;Signal;HPM_P1;HPM_P2
2023/01/20 00:00:21;;;;;;;33.65;9.63;;;;;;;;;;4967033;28;20095;-78
2023/01/20 00:02:46;;;;;;;17.92;7.53;;;;;;;;;;4958808;28;20153;-77
2023/01/20 00:05:12;;;;;;;20.65;7.50;;;;;;;;;;4971026;28;20055;-78
2023/01/20 00:07:37;;;;;;;24.85;8.25;;;;;;;;;;4965986;28;20069;-77
2023/01/20 00:10:03;;;;;;;20.85;6.75;;;;;;;;;;4960479;28;20035;-77
2023/01/20 00:12:30;;;;;;;26.48;8.75;;;;;;;;;;4956150;28;20146;-77
2023/01/20 00:14:55;;;;;;;14.88;5.40;;;;;;;;;;4961099;28;20035;-78
2023/01/20 00:17:21;;;;;;;25.88;8.73;;;;;;;;;;4960337;28;20082;-77
2023/01/20 00:19:46;;;;;;;29.40;8.80;;;;;;;;;;4961206;28;20054;-78
2023/01/20 00:22:11;;;;;;;28.88;8.18;;;;;;;;;;4957288;28;20043;-77
2023/01/20 00:24:36;;;;;;;22.13;7.07;;;;;;;;;;4960622;28;20148;-77
2023/01/20 00:27:02;;;;;;;31.25;9.65;;;;;;;;;;4960651;28;20073;-77
2023/01/20 00:29:27;;;;;;;37.17;9.13;;;;;;;;;;4964931;28;20042;-77
2023/01/20 00:31:53;;;;;;;32.63;9.70;;;;;;;;;;4961915;28;20022;-77
2023/01/20 00:34:18;;;;;;;21.20;7.07;;;;;;;;;;4983283;28;20129;-77
2023/01/20 00:36:43;;;;;;;32.47;9.80;;;;;;;;;;4976196;28;20046;-77
2023/01/20 00:39:08;;;;;;;26.90;9.02;;;;;;;;;;4952861;28;20170;-77
2023/01/20 00:41:34;;;;;;;31.70;9.07;;;;;;;;;;4965506;28;20043;-77
2023/01/20 00:43:59;;;;;;;19.55;6.95;;;;;;;;;;4958070;28;20098;-77
2023/01/20 00:46:25;;;;;;;22.27;7.68;;;;;;;;;;4964623;28;20055;-77
2023/01/20 00:48:50;;;;;;;31.83;8.98;;;;;;;;;;4964889;28;20415;-78
2023/01/20 00:51:15;;;;;;;26.95;7.95;;;;;;;;;;4959908;28;20054;-77
2023/01/20 00:53:41;;;;;;;23.35;6.90;;;;;;;;;;4961798;28;20034;-77
2023/01/20 00:56:07;;;;;;;19.75;6.20;;;;;;;;;;4954095;28;20290;-77
2023/01/20 00:58:32;;;;;;;32.17;7.53;;;;;;;;;;4961305;28;20050;-77
2023/01/20 01:00:58;;;;;;;23.77;5.88;;;;;;;;;;4959376;28;20045;-77
2023/01/20 01:03:24;;;;;;;33.97;9.23;;;;;;;;;;4957969;28;20389;-77
2023/01/20 01:05:49;;;;;;;23.20;7.00;;;;;;;;;;4958999;28;20122;-78
2023/01/20 01:08:15;;;;;;;32.95;9.13;;;;;;;;;;4976468;28;20030;-77
2023/01/20 01:10:40;;;;;;;29.05;9.75;;;;;;;;;;4941419;28;20030;-77
2023/01/20 01:13:06;;;;;;;33.42;10.18;;;;;;;;;;4963688;28;20068;-77
2023/01/20 01:15:32;;;;;;;35.38;10.07;;;;;;;;;;4944140;28;20045;-77
2023/01/20 01:17:58;;;;;;;31.90;10.05;;;;;;;;;;4962263;28;20043;-78
2023/01/20 01:20:24;;;;;;;29.15;10.93;;;;;;;;;;4959957;28;22447;-77
2023/01/20 01:22:50;;;;;;;25.38;9.45;;;;;;;;;;4966443;28;20030;-77
2023/01/20 01:25:15;;;;;;;22.55;7.00;;;;;;;;;;4955347;28;20043;-77
2023/01/20 01:27:41;;;;;;;28.95;9.02;;;;;;;;;;4954477;28;20073;-77
2023/01/20 01:30:08;;;;;;;26.80;9.38;;;;;;;;;;4934818;28;20471;-77
2023/01/20 01:32:33;;;;;;;27.63;7.03;;;;;;;;;;4953989;28;20034;-78
2023/01/20 01:34:58;;;;;;;30.88;11.20;;;;;;;;;;4962498;28;20530;-77
2023/01/20 01:37:24;;;;;;;27.38;7.45;;;;;;;;;;4965593;28;20046;-79
2023/01/20 01:39:49;;;;;;;23.95;9.30;;;;;;;;;;4965117;28;20031;-77
2023/01/20 01:42:21;;;;;;;28.25;9.43;;;;;;;;;;4962072;28;20042;-77
2023/01/20 01:45:24;;;;;;;22.63;8.88;;;;;;;;;;4969502;28;20603;-77
2023/01/20 01:47:58;;;;;;;30.95;8.18;;;;;;;;;;4914317;29;20127;-77
2023/01/20 01:50:47;;;;;;;23.25;8.00;;;;;;;;;;4946254;28;20042;-78
2023/01/20 01:53:14;;;;;;;23.70;8.10;;;;;;;;;;4963039;28;20048;-77
2023/01/20 01:55:44;;;;;;;23.63;8.55;;;;;;;;;;4959800;28;20117;-78
2023/01/20 01:58:14;;;;;;;31.52;9.40;;;;;;;;;;4958535;28;20035;-77
2023/01/20 02:00:40;;;;;;;29.05;8.80;;;;;;;;;;4961476;28;20048;-78
2023/01/20 02:03:06;;;;;;;24.70;7.57;;;;;;;;;;4963694;28;20046;-77
2023/01/20 02:05:32;;;;;;;26.23;8.68;;;;;;;;;;4964111;28;20039;-77
2023/01/20 02:07:58;;;;;;;15.75;5.47;;;;;;;;;;4981315;28;20491;-77
2023/01/20 02:10:24;;;;;;;21.23;8.57;;;;;;;;;;4965588;28;20614;-78
2023/01/20 02:12:50;;;;;;;14.82;5.90;;;;;;;;;;4948666;28;20118;-78
2023/01/20 02:15:21;;;;;;;27.60;8.20;;;;;;;;;;4965594;28;20035;-78
2023/01/20 02:18:14;;;;;;;10.55;5.05;;;;;;;;;;4962816;28;20038;-77
2023/01/20 02:21:10;;;;;;;26.17;8.55;;;;;;;;;;4954906;28;20054;-78
2023/01/20 02:24:03;;;;;;;19.80;6.13;;;;;;;;;;4948323;28;20031;-78
2023/01/20 02:26:53;;;;;;;22.77;7.80;;;;;;;;;;4966543;28;20066;-78
2023/01/20 02:29:25;;;;;;;29.65;9.40;;;;;;;;;;4966659;28;20046;-77
2023/01/20 02:32:02;;;;;;;20.83;6.82;;;;;;;;;;4960652;28;20105;-77
2023/01/20 02:35:00;;;;;;;9.73;4.70;;;;;;;;;;4951092;28;20061;-77
2023/01/20 02:37:28;;;;;;;19.92;7.15;;;;;;;;;;4936483;28;20461;-78
2023/01/20 02:40:18;;;;;;;24.35;6.45;;;;;;;;;;4966945;28;20057;-78
2023/01/20 02:43:01;;;;;;;23.25;7.63;;;;;;;;;;4950003;28;20122;-78
2023/01/20 02:45:58;;;;;;;20.60;7.43;;;;;;;;;;4950718;28;20435;-78
2023/01/20 02:48:35;;;;;;;18.13;7.28;;;;;;;;;;4962025;28;20051;-78
2023/01/20 02:51:25;;;;;;;19.20;7.10;;;;;;;;;;4966727;28;20059;-78
2023/01/20 02:53:54;;;;;;;25.23;7.47;;;;;;;;;;4959157;28;20043;-78
2023/01/20 02:56:24;;;;;;;20.52;6.22;;;;;;;;;;4961646;28;20407;-77
2023/01/20 02:59:02;;;;;;;27.42;7.75;;;;;;;;;;4965350;28;20034;-78
2023/01/20 03:01:34;;;;;;;24.13;6.65;;;;;;;;;;4960508;28;20125;-77
2023/01/20 03:04:01;;;;;;;16.87;6.30;;;;;;;;;;4954941;28;20058;-78
2023/01/20 03:06:33;;;;;;;20.98;6.90;;;;;;;;;;4966450;28;20360;-78
2023/01/20 03:09:01;;;;;;;17.35;6.80;;;;;;;;;;4956140;28;20051;-78
2023/01/20 03:11:30;;;;;;;22.90;7.68;;;;;;;;;;4954526;28;20046;-78
2023/01/20 03:14:04;;;;;;;23.55;7.88;;;;;;;;;;4965512;28;20489;-78
2023/01/20 03:16:29;;;;;;;15.73;4.93;;;;;;;;;;4966373;28;20059;-78
2023/01/20 03:18:55;;;;;;;21.80;7.63;;;;;;;;;;4965067;28;20415;-78
2023/01/20 03:21:21;;;;;;;20.88;7.50;;;;;;;;;;4960303;28;20035;-78
2023/01/20 03:24:00;;;;;;;10.82;5.15;;;;;;;;;;4962492;28;20415;-78
2023/01/20 03:26:25;;;;;;;21.00;7.75;;;;;;;;;;4967690;28;20034;-77
2023/01/20 03:28:53;;;;;;;22.25;8.05;;;;;;;;;;4949379;28;20031;-78
2023/01/20 03:31:24;;;;;;;21.20;7.60;;;;;;;;;;4988090;28;20035;-78
2023/01/20 03:33:52;;;;;;;20.98;7.85;;;;;;;;;;4965686;28;20470;-78
2023/01/20 03:36:21;;;;;;;24.73;8.52;;;;;;;;;;4963426;28;20415;-78
2023/01/20 03:38:46;;;;;;;21.20;8.63;;;;;;;;;;4963579;28;20069;-78
2023/01/20 03:41:38;;;;;;;13.18;4.93;;;;;;;;;;4964001;28;20475;-78
2023/01/20 03:44:16;;;;;;;26.60;8.65;;;;;;;;;;4950716;28;20069;-78
2023/01/20 03:47:07;;;;;;;27.38;9.23;;;;;;;;;;4964930;28;20059;-78
2023/01/20 03:49:38;;;;;;;23.13;7.40;;;;;;;;;;4969992;28;20039;-78
2023/01/20 03:52:10;;;;;;;21.23;7.60;;;;;;;;;;4965976;28;20077;-77
2023/01/20 03:54:46;;;;;;;19.67;6.97;;;;;;;;;;4963415;28;20535;-78
2023/01/20 03:57:17;;;;;;;20.98;7.68;;;;;;;;;;4959810;28;20030;-78
2023/01/20 03:59:43;;;;;;;21.13;8.50;;;;;;;;;;4959269;28;20042;-78
2023/01/20 04:02:10;;;;;;;25.10;8.77;;;;;;;;;;4958488;28;20022;-78
2023/01/20 04:04:38;;;;;;;21.75;8.45;;;;;;;;;;4971095;28;20097;-79
2023/01/20 04:07:13;;;;;;;20.13;8.00;;;;;;;;;;4966620;28;20111;-77
2023/01/20 04:09:43;;;;;;;24.25;9.25;;;;;;;;;;4963968;28;20124;-78
2023/01/20 04:12:08;;;;;;;25.77;8.35;;;;;;;;;;4967639;28;20027;-78
2023/01/20 04:14:34;;;;;;;21.20;7.47;;;;;;;;;;4967141;28;20061;-78
2023/01/20 04:17:01;;;;;;;18.05;7.10;;;;;;;;;;4962439;28;20030;-79
2023/01/20 04:19:26;;;;;;;21.80;7.50;;;;;;;;;;4970183;28;20027;-78
2023/01/20 04:22:21;;;;;;;16.25;7.32;;;;;;;;;;4969841;28;20050;-77
2023/01/20 04:24:52;;;;;;;19.58;7.70;;;;;;;;;;4967215;28;20102;-77
2023/01/20 04:27:17;;;;;;;23.77;9.32;;;;;;;;;;4973565;28;20035;-78
2023/01/20 04:29:42;;;;;;;21.42;8.35;;;;;;;;;;4968215;28;20810;-78
2023/01/20 04:32:10;;;;;;;16.15;7.78;;;;;;;;;;4965865;28;20042;-77
2023/01/20 04:34:35;;;;;;;22.30;8.38;;;;;;;;;;4962480;28;20357;-78
2023/01/20 04:37:01;;;;;;;25.45;8.75;;;;;;;;;;4968937;28;20042;-78
2023/01/20 04:39:26;;;;;;;31.75;9.35;;;;;;;;;;4967189;28;20058;-78
2023/01/20 04:41:51;;;;;;;20.88;7.22;;;;;;;;;;4968892;28;20038;-78
2023/01/20 04:44:17;;;;;;;25.45;8.57;;;;;;;;;;4963800;28;20031;-77
2023/01/20 04:46:42;;;;;;;24.48;9.10;;;;;;;;;;4984412;28;20129;-77
2023/01/20 04:49:09;;;;;;;15.40;5.70;;;;;;;;;;4966872;28;20066;-78
2023/01/20 04:51:35;;;;;;;25.30;8.68;;;;;;;;;;4967650;28;20149;-78
2023/01/20 04:54:00;;;;;;;25.27;8.25;;;;;;;;;;4967969;28;20601;-77
2023/01/20 04:56:25;;;;;;;18.13;8.23;;;;;;;;;;4964217;28;20451;-78
2023/01/20 04:58:51;;;;;;;17.77;7.00;;;;;;;;;;4969600;28;20137;-78
2023/01/20 05:01:16;;;;;;;15.00;7.00;;;;;;;;;;4968365;28;20035;-78
2023/01/20 05:03:42;;;;;;;21.73;7.70;;;;;;;;;;4966291;28;20046;-78
2023/01/20 05:06:09;;;;;;;19.85;7.40;;;;;;;;;;4965086;28;20058;-77
2023/01/20 05:08:35;;;;;;;23.48;8.45;;;;;;;;;;4964378;28;20461;-78
2023/01/20 05:11:00;;;;;;;21.70;7.63;;;;;;;;;;4968749;28;20031;-78
2023/01/20 05:13:25;;;;;;;24.45;9.77;;;;;;;;;;4961827;28;20129;-79
2023/01/20 05:15:51;;;;;;;23.23;7.95;;;;;;;;;;4963481;28;20042;-78
2023/01/20 05:18:16;;;;;;;24.27;7.05;;;;;;;;;;4963052;28;20149;-78
2023/01/20 05:20:44;;;;;;;23.92;8.75;;;;;;;;;;4969040;28;20038;-78
2023/01/20 05:23:10;;;;;;;23.52;6.97;;;;;;;;;;4967780;28;20021;-77
2023/01/20 05:25:35;;;;;;;18.30;8.50;;;;;;;;;;4962241;28;20054;-78
2023/01/20 05:28:00;;;;;;;22.23;7.60;;;;;;;;;;4956625;28;20035;-78
2023/01/20 05:30:25;;;;;;;21.70;8.55;;;;;;;;;;4959474;28;20759;-78
2023/01/20 05:32:51;;;;;;;19.70;7.20;;;;;;;;;;4960674;28;20035;-78
2023/01/20 05:35:17;;;;;;;15.27;5.90;;;;;;;;;;4969114;28;20085;-77
2023/01/20 05:37:43;;;;;;;11.85;4.53;;;;;;;;;;4964384;28;20018;-79
2023/01/20 05:40:09;;;;;;;25.00;8.77;;;;;;;;;;4964851;28;20026;-78
2023/01/20 05:42:34;;;;;;;18.88;7.22;;;;;;;;;;4958153;28;20070;-77
2023/01/20 05:44:59;;;;;;;22.10;8.85;;;;;;;;;;4961196;28;20074;-77
2023/01/20 05:47:25;;;;;;;22.73;8.05;;;;;;;;;;4967346;28;20125;-78
2023/01/20 05:49:50;;;;;;;25.55;7.38;;;;;;;;;;4965945;28;20102;-78
2023/01/20 05:52:15;;;;;;;22.77;6.50;;;;;;;;;;4965661;28;20035;-78
2023/01/20 05:54:41;;;;;;;22.90;6.20;;;;;;;;;;4972092;28;20389;-77
2023/01/20 05:57:06;;;;;;;17.30;5.68;;;;;;;;;;4968076;28;20066;-77
2023/01/20 05:59:31;;;;;;;22.23;9.50;;;;;;;;;;4958268;28;20110;-78
2023/01/20 06:01:57;;;;;;;13.57;5.90;;;;;;;;;;4957342;28;20107;-77
2023/01/20 06:04:22;;;;;;;22.02;7.93;;;;;;;;;;4964425;28;20038;-78
2023/01/20 06:06:47;;;;;;;17.02;7.03;;;;;;;;;;4966938;28;20086;-78
2023/01/20 06:09:13;;;;;;;20.80;8.23;;;;;;;;;;4967208;28;20043;-78
2023/01/20 06:11:39;;;;;;;18.60;8.00;;;;;;;;;;4961566;28;20043;-77
2023/01/20 06:14:05;;;;;;;14.75;5.82;;;;;;;;;;4967916;28;20101;-78
2023/01/20 06:16:30;;;;;;;16.73;6.07;;;;;;;;;;4966889;28;20075;-78
2023/01/20 06:18:56;;;;;;;19.92;6.32;;;;;;;;;;4960098;28;20515;-77
2023/01/20 06:21:21;;;;;;;15.73;6.78;;;;;;;;;;4963193;28;20031;-78
2023/01/20 06:23:47;;;;;;;21.10;7.47;;;;;;;;;;4967027;28;20085;-78
2023/01/20 06:26:12;;;;;;;24.25;6.68;;;;;;;;;;4966707;28;20078;-77
2023/01/20 06:28:38;;;;;;;18.02;7.35;;;;;;;;;;4971442;28;20035;-77
2023/01/20 06:31:09;;;;;;;16.77;6.55;;;;;;;;;;4961515;28;20038;-77
2023/01/20 06:33:35;;;;;;;19.90;6.65;;;;;;;;;;4966880;28;20591;-78
2023/01/20 06:36:01;;;;;;;10.73;5.05;;;;;;;;;;4961581;28;20113;-78
2023/01/20 06:38:29;;;;;;;16.00;6.15;;;;;;;;;;4966324;28;20447;-78
2023/01/20 06:41:01;;;;;;;19.40;7.25;;;;;;;;;;4962579;28;20031;-77
2023/01/20 06:43:28;;;;;;;13.68;6.93;;;;;;;;;;4962890;28;20685;-78
2023/01/20 06:46:01;;;;;;;15.77;6.55;;;;;;;;;;4964897;28;20520;-78
2023/01/20 06:48:27;;;;;;;16.48;7.30;;;;;;;;;;4982219;28;20041;-78
2023/01/20 06:50:52;;;;;;;18.63;6.68;;;;;;;;;;4965357;28;20027;-78
2023/01/20 06:53:17;;;;;;;14.63;6.90;;;;;;;;;;4962436;28;20174;-78
2023/01/20 06:55:43;;;;;;;18.70;7.32;;;;;;;;;;4961292;28;20019;-78
2023/01/20 06:58:08;;;;;;;18.52;6.68;;;;;;;;;;4967193;28;20105;-78
2023/01/20 07:00:33;;;;;;;18.08;6.22;;;;;;;;;;4965684;28;20130;-78
2023/01/20 07:02:59;;;;;;;20.85;7.43;;;;;;;;;;4959367;28;20420;-78
2023/01/20 07:05:24;;;;;;;15.40;6.45;;;;;;;;;;4956926;28;20557;-78
2023/01/20 07:07:49;;;;;;;25.17;6.43;;;;;;;;;;4947447;28;20844;-78
2023/01/20 07:10:15;;;;;;;16.92;6.30;;;;;;;;;;4962745;28;20053;-78
2023/01/20 07:12:40;;;;;;;12.90;5.68;;;;;;;;;;4957601;28;20546;-78
2023/01/20 07:15:06;;;;;;;19.15;8.18;;;;;;;;;;4979819;28;20039;-79
2023/01/20 07:17:31;;;;;;;18.77;6.05;;;;;;;;;;4957623;28;20039;-78
2023/01/20 07:19:57;;;;;;;17.35;5.80;;;;;;;;;;4962213;28;20019;-78
2023/01/20 07:22:22;;;;;;;20.33;7.50;;;;;;;;;;4962695;28;20038;-77
2023/01/20 07:24:47;;;;;;;12.48;5.05;;;;;;;;;;4963657;28;20035;-78
2023/01/20 07:27:13;;;;;;;16.38;6.35;;;;;;;;;;4964846;28;20472;-78
2023/01/20 07:29:39;;;;;;;16.35;5.95;;;;;;;;;;4966192;28;20540;-77
2023/01/20 07:32:05;;;;;;;22.42;7.40;;;;;;;;;;4966102;28;20105;-78
2023/01/20 07:34:30;;;;;;;16.08;5.32;;;;;;;;;;4958715;28;20039;-78
2023/01/20 07:36:55;;;;;;;11.60;5.28;;;;;;;;;;4974902;28;20049;-78
2023/01/20 07:39:21;;;;;;;11.00;5.25;;;;;;;;;;4968091;28;20050;-81
2023/01/20 07:41:49;;;;;;;12.07;5.93;;;;;;;;;;4969793;28;20042;-78
2023/01/20 07:44:15;;;;;;;13.98;5.97;;;;;;;;;;4967861;28;20033;-78
2023/01/20 07:46:41;;;;;;;18.42;5.97;;;;;;;;;;4966701;28;20051;-78
2023/01/20 07:49:07;;;;;;;8.63;4.38;;;;;;;;;;4954454;28;20042;-78
2023/01/20 07:51:32;;;;;;;19.08;6.75;;;;;;;;;;4957293;28;20049;-78
2023/01/20 07:53:57;;;;;;;6.90;3.60;;;;;;;;;;4973520;28;20730;-78
2023/01/20 07:56:27;;;;;;;17.25;6.47;;;;;;;;;;4958779;28;20180;-78
2023/01/20 07:58:53;;;;;;;15.60;5.63;;;;;;;;;;4957642;28;20018;-78
2023/01/20 08:01:24;;;;;;;14.05;5.50;;;;;;;;;;4957597;28;20151;-78
2023/01/20 08:03:50;;;;;;;19.77;6.13;;;;;;;;;;4960814;28;20043;-79
2023/01/20 08:06:18;;;;;;;10.90;5.07;;;;;;;;;;4962136;28;20215;-78
2023/01/20 08:08:44;;;;;;;12.52;5.80;;;;;;;;;;4950320;28;20467;-78
2023/01/20 08:11:12;;;;;;;11.68;5.00;;;;;;;;;;4953547;28;20031;-78
2023/01/20 08:13:38;;;;;;;11.82;5.28;;;;;;;;;;4967630;28;20028;-78
2023/01/20 08:16:07;;;;;;;18.95;5.85;;;;;;;;;;4940609;28;20125;-78
2023/01/20 08:18:34;;;;;;;12.98;4.97;;;;;;;;;;4967368;28;20058;-78
2023/01/20 08:20:59;;;;;;;12.88;6.00;;;;;;;;;;4967363;28;20122;-79
2023/01/20 08:23:24;;;;;;;12.35;4.68;;;;;;;;;;4963007;28;20158;-78
2023/01/20 08:25:58;;;;;;;13.57;4.07;;;;;;;;;;4960997;28;20023;-78
2023/01/20 08:28:24;;;;;;;18.23;5.97;;;;;;;;;;4944666;28;20105;-78
2023/01/20 08:30:49;;;;;;;19.90;5.75;;;;;;;;;;4951961;28;20047;-80
2023/01/20 08:33:15;;;;;;;12.50;5.20;;;;;;;;;;4961074;28;20059;-78
2023/01/20 08:35:40;;;;;;;10.52;4.88;;;;;;;;;;4966114;28;20050;-78
2023/01/20 08:38:06;;;;;;;13.77;5.97;;;;;;;;;;4963606;28;20050;-77
2023/01/20 08:40:31;;;;;;;19.25;5.75;;;;;;;;;;4949119;28;20495;-78
2023/01/20 08:42:57;;;;;;;12.55;5.35;;;;;;;;;;4950932;28;20047;-78
2023/01/20 08:45:22;;;;;;;15.55;5.13;;;;;;;;;;4959348;28;20042;-78
2023/01/20 08:47:48;;;;;;;13.50;4.57;;;;;;;;;;4963178;28;20034;-77
2023/01/20 08:50:14;;;;;;;16.40;6.70;;;;;;;;;;4976322;28;20134;-78
2023/01/20 08:52:40;;;;;;;16.55;4.95;;;;;;;;;;4959637;28;20557;-78
2023/01/20 08:55:06;;;;;;;11.27;5.95;;;;;;;;;;4946026;28;20401;-78
2023/01/20 08:57:32;;;;;;;15.20;5.55;;;;;;;;;;4957503;28;20871;-78
2023/01/20 08:59:57;;;;;;;13.80;4.88;;;;;;;;;;4954894;28;20146;-78
2023/01/20 09:02:23;;;;;;;12.32;5.50;;;;;;;;;;4951369;28;20042;-78
2023/01/20 09:04:49;;;;;;;11.82;4.85;;;;;;;;;;4964629;28;20023;-78
2023/01/20 09:07:16;;;;;;;12.38;4.40;;;;;;;;;;4966317;28;20046;-79
2023/01/20 09:09:41;;;;;;;10.85;4.72;;;;;;;;;;4945586;28;20051;-78
2023/01/20 09:12:07;;;;;;;9.60;4.43;;;;;;;;;;4965617;28;20046;-78
2023/01/20 09:14:32;;;;;;;13.88;5.18;;;;;;;;;;4950118;28;20580;-78
2023/01/20 09:16:59;;;;;;;10.32;4.30;;;;;;;;;;4961699;28;20502;-77
2023/01/20 09:19:24;;;;;;;11.02;4.70;;;;;;;;;;4941044;28;20105;-79
2023/01/20 09:21:50;;;;;;;14.52;5.18;;;;;;;;;;4959271;28;20479;-78
2023/01/20 09:24:15;;;;;;;17.45;6.60;;;;;;;;;;4962971;28;20687;-78
2023/01/20 09:26:41;;;;;;;13.15;5.43;;;;;;;;;;4962906;28;21654;-78
2023/01/20 09:29:11;;;;;;;10.13;5.40;;;;;;;;;;4943594;28;20073;-78
2023/01/20 09:31:38;;;;;;;10.20;4.50;;;;;;;;;;4961680;28;20038;-79
2023/01/20 09:34:03;;;;;;;10.63;4.45;;;;;;;;;;4958534;28;20079;-78
2023/01/20 09:36:29;;;;;;;7.85;4.18;;;;;;;;;;4955394;28;20211;-78
2023/01/20 09:44:48;;;;;;;10.98;4.10;;;;;;;;;;4955516;28;20054;-79
2023/01/20 09:47:38;;;;;;;14.50;4.20;;;;;;;;;;4959497;28;20085;-78
2023/01/20 09:53:46;;;;;;;22.50;6.60;;;;;;;;;;4955246;28;20046;-78
2023/01/20 09:56:21;;;;;;;15.32;5.53;;;;;;;;;;4955023;28;20026;-78
2023/01/20 09:59:13;;;;;;;16.95;6.75;;;;;;;;;;4951087;28;20526;-79
2023/01/20 10:01:43;;;;;;;16.33;5.00;;;;;;;;;;4955148;28;20030;-78
2023/01/20 10:04:19;;;;;;;13.05;6.05;;;;;;;;;;4947604;28;20072;-79
2023/01/20 10:06:44;;;;;;;14.85;6.07;;;;;;;;;;4941783;28;20097;-83
2023/01/20 10:09:41;;;;;;;10.07;4.72;;;;;;;;;;4969064;28;20475;-78
2023/01/20 10:12:13;;;;;;;8.57;3.78;;;;;;;;;;4975287;28;20045;-79
2023/01/20 10:14:49;;;;;;;15.47;5.30;;;;;;;;;;4961777;28;20031;-79
2023/01/20 10:17:22;;;;;;;22.10;5.18;;;;;;;;;;4963204;28;20190;-79
2023/01/20 10:20:08;;;;;;;15.63;6.13;;;;;;;;;;4967023;28;20023;-79
2023/01/20 10:22:49;;;;;;;14.85;5.18;;;;;;;;;;4949192;28;20838;-79
2023/01/20 10:25:20;;;;;;;13.13;5.68;;;;;;;;;;4960804;28;20038;-79
2023/01/20 10:28:03;;;;;;;15.75;7.05;;;;;;;;;;4957564;28;20035;-79
2023/01/20 10:30:35;;;;;;;23.50;6.15;;;;;;;;;;4964589;28;20046;-79
2023/01/20 10:33:19;;;;;;;13.15;6.40;;;;;;;;;;4960703;28;20039;-78
2023/01/20 10:35:51;;;;;;;17.17;6.55;;;;;;;;;;4944955;28;20053;-79
2023/01/20 10:38:29;;;;;;;18.52;6.55;;;;;;;;;;4985940;28;20041;-79
2023/01/20 10:41:10;;;;;;;21.58;7.47;;;;;;;;;;4966614;28;20022;-80
2023/01/20 10:43:35;;;;;;;20.55;7.28;;;;;;;;;;4957382;28;20042;-78
2023/01/20 10:46:28;;;;;;;19.88;8.60;;;;;;;;;;4960596;28;20043;-78
2023/01/20 10:49:15;;;;;;;12.13;5.80;;;;;;;;;;4967081;28;20153;-78
2023/01/20 10:52:06;;;;;;;20.67;6.85;;;;;;;;;;4947763;28;20518;-78
2023/01/20 10:54:37;;;;;;;14.57;7.57;;;;;;;;;;4976923;28;20487;-78
2023/01/20 10:57:04;;;;;;;15.73;6.97;;;;;;;;;;4965288;28;20049;-78
2023/01/20 10:59:41;;;;;;;19.65;6.60;;;;;;;;;;4959746;28;20097;-77
2023/01/20 11:02:24;;;;;;;16.58;6.22;;;;;;;;;;4971751;28;20490;-77
2023/01/20 11:04:57;;;;;;;16.55;7.13;;;;;;;;;;4966239;28;20109;-79
2023/01/20 11:07:24;;;;;;;17.40;7.97;;;;;;;;;;4952162;28;20043;-79
2023/01/20 11:09:50;;;;;;;17.20;7.63;;;;;;;;;;4959978;28;20038;-80
2023/01/20 11:12:19;;;;;;;12.25;5.53;;;;;;;;;;4965050;28;20031;-80
2023/01/20 11:14:46;;;;;;;15.85;6.22;;;;;;;;;;4961268;28;20043;-81
2023/01/20 11:17:19;;;;;;;11.43;4.55;;;;;;;;;;4961556;28;20044;-79
2023/01/20 11:19:56;;;;;;;11.10;4.45;;;;;;;;;;4963262;28;20015;-80
2023/01/20 11:22:45;;;;;;;18.60;6.22;;;;;;;;;;4964623;28;20059;-80
2023/01/20 11:25:23;;;;;;;15.48;6.35;;;;;;;;;;4939221;28;20594;-79
2023/01/20 11:27:49;;;;;;;13.15;5.65;;;;;;;;;;4960729;28;20035;-80
2023/01/20 11:30:24;;;;;;;16.33;5.90;;;;;;;;;;4951042;28;20039;-80
2023/01/20 11:33:19;;;;;;;14.07;6.28;;;;;;;;;;4948384;28;20511;-80
2023/01/20 11:36:06;;;;;;;13.00;5.43;;;;;;;;;;4948562;28;20038;-80
2023/01/20 11:38:44;;;;;;;12.40;5.57;;;;;;;;;;4965805;28;20031;-80
2023/01/20 11:41:25;;;;;;;17.60;6.28;;;;;;;;;;4948270;28;20109;-80
2023/01/20 11:43:54;;;;;;;17.80;6.88;;;;;;;;;;4966762;28;20728;-80
2023/01/20 11:46:19;;;;;;;13.55;6.75;;;;;;;;;;4956171;28;20039;-81
2023/01/20 11:48:45;;;;;;;14.15;6.15;;;;;;;;;;4964259;28;20108;-81
2023/01/20 11:51:28;;;;;;;22.90;7.32;;;;;;;;;;4960418;28;20241;-80
2023/01/20 11:54:14;;;;;;;15.85;6.70;;;;;;;;;;4970311;28;20042;-80
2023/01/20 11:56:42;;;;;;;12.07;6.05;;;;;;;;;;4960634;28;20047;-80
2023/01/20 11:59:23;;;;;;;16.95;6.72;;;;;;;;;;4965973;28;20022;-79
2023/01/20 12:01:51;;;;;;;18.88;7.22;;;;;;;;;;4979867;28;20492;-80
2023/01/20 12:04:37;;;;;;;19.00;7.57;;;;;;;;;;4962424;28;20058;-80
2023/01/20 12:07:08;;;;;;;17.27;7.47;;;;;;;;;;4957413;28;20086;-79
2023/01/20 12:09:41;;;;;;;11.70;5.47;;;;;;;;;;4958113;28;20043;-79
2023/01/20 12:12:34;;;;;;;12.90;6.30;;;;;;;;;;4964636;28;20031;-80
2023/01/20 12:15:04;;;;;;;14.55;5.63;;;;;;;;;;4965716;28;20531;-80
2023/01/20 12:17:42;;;;;;;14.57;6.38;;;;;;;;;;4963978;28;20027;-79
2023/01/20 12:20:43;;;;;;;10.30;5.53;;;;;;;;;;4964683;28;20055;-79
2023/01/20 12:23:38;;;;;;;14.63;6.32;;;;;;;;;;4961424;28;20031;-78
2023/01/20 12:26:04;;;;;;;15.48;7.25;;;;;;;;;;4975126;28;20034;-79
2023/01/20 12:28:39;;;;;;;13.20;6.88;;;;;;;;;;4960888;28;20125;-79
2023/01/20 12:31:18;;;;;;;21.73;6.47;;;;;;;;;;4963373;28;20105;-79
2023/01/20 12:33:48;;;;;;;19.48;7.65;;;;;;;;;;4962438;28;20041;-80
2023/01/20 12:36:29;;;;;;;15.90;6.57;;;;;;;;;;4960301;28;20039;-79
2023/01/20 12:39:01;;;;;;;10.55;5.78;;;;;;;;;;4963811;28;20030;-81
2023/01/20 12:41:47;;;;;;;16.65;7.35;;;;;;;;;;4960862;28;20035;-79
2023/01/20 12:44:26;;;;;;;13.65;7.65;;;;;;;;;;4971733;28;20019;-79
2023/01/20 12:47:20;;;;;;;14.13;6.57;;;;;;;;;;4958279;28;20079;-78
2023/01/20 12:50:04;;;;;;;;;;;;;;;;;;4954627;28;20556;-78
2023/01/20 12:53:00;;;;;;;16.35;5.43;;;;;;;;;;4959634;28;20425;-79
2023/01/20 12:55:47;;;;;;;21.98;8.10;;;;;;;;;;4963208;28;20138;-79
2023/01/20 12:59:03;;;;;;;11.75;5.63;;;;;;;;;;4961627;28;20668;-78
2023/01/20 13:01:47;;;;;;;13.43;6.13;;;;;;;;;;4936955;28;20046;-78
2023/01/20 13:04:47;;;;;;;14.45;6.40;;;;;;;;;;4964401;28;20035;-78
2023/01/20 13:07:23;;;;;;;12.10;5.65;;;;;;;;;;4956833;28;20074;-78
2023/01/20 13:10:20;;;;;;;15.50;5.65;;;;;;;;;;4962484;28;20038;-79
2023/01/20 13:13:13;;;;;;;13.13;6.35;;;;;;;;;;4967485;28;20117;-80
2023/01/20 13:16:01;;;;;;;14.45;6.93;;;;;;;;;;4968024;28;20030;-79
2023/01/20 13:18:38;;;;;;;15.88;6.78;;;;;;;;;;4956695;28;20035;-79
2023/01/20 13:21:03;;;;;;;19.65;7.32;;;;;;;;;;4983273;28;20027;-80
2023/01/20 13:23:33;;;;;;;16.55;7.10;;;;;;;;;;4968231;28;20045;-79
2023/01/20 13:25:59;;;;;;;13.80;6.60;;;;;;;;;;4967951;28;20053;-80
2023/01/20 13:28:27;;;;;;;12.23;5.43;;;;;;;;;;4967547;28;20523;-84
2023/01/20 13:30:57;;;;;;;11.60;6.03;;;;;;;;;;4959635;28;21074;-85
2023/01/20 13:33:39;;;;;;;11.45;5.63;;;;;;;;;;4968030;28;20035;-82
2023/01/20 13:36:22;;;;;;;13.50;5.97;;;;;;;;;;4966367;28;20133;-82
2023/01/20 13:39:09;;;;;;;16.15;7.13;;;;;;;;;;4976795;28;20038;-82
2023/01/20 13:41:49;;;;;;;11.95;6.65;;;;;;;;;;4950390;28;20043;-82
2023/01/20 13:44:30;;;;;;;16.73;6.43;;;;;;;;;;4961869;28;20034;-81
2023/01/20 13:46:56;;;;;;;15.13;6.43;;;;;;;;;;4958747;28;20476;-81
2023/01/20 13:49:23;;;;;;;17.83;6.40;;;;;;;;;;4960949;28;20031;-82
2023/01/20 13:51:49;;;;;;;17.13;6.45;;;;;;;;;;4965303;28;20084;-81
2023/01/20 13:54:24;;;;;;;22.58;6.30;;;;;;;;;;4950396;28;20051;-80
2023/01/20 13:56:50;;;;;;;17.00;5.78;;;;;;;;;;4967378;28;20412;-81
2023/01/20 13:59:16;;;;;;;11.82;5.50;;;;;;;;;;4947870;28;20022;-81
2023/01/20 14:01:41;;;;;;;15.55;6.28;;;;;;;;;;4966217;28;20023;-81
2023/01/20 14:04:14;;;;;;;13.43;5.60;;;;;;;;;;4981510;28;20448;-80
2023/01/20 14:06:48;;;;;;;13.77;4.38;;;;;;;;;;4966076;28;20062;-81
2023/01/20 14:09:22;;;;;;;9.27;3.50;;;;;;;;;;4961751;28;20035;-81
2023/01/20 14:11:48;;;;;;;;;;;;;;;;;;4960051;28;20468;-81
2023/01/20 14:14:17;;;;;;;8.45;4.35;;;;;;;;;;4966555;28;19996;-80
2023/01/20 14:16:43;;;;;;;8.45;4.78;;;;;;;;;;4961977;28;20015;-81
2023/01/20 14:19:38;;;;;;;10.02;3.85;;;;;;;;;;4937332;28;20497;-80
2023/01/20 14:22:22;;;;;;;9.52;4.32;;;;;;;;;;4937286;28;20031;-81
2023/01/20 14:24:54;;;;;;;17.75;4.50;;;;;;;;;;4946639;28;20027;-80
2023/01/20 14:27:30;;;;;;;10.80;3.97;;;;;;;;;;4964863;28;20105;-78
2023/01/20 14:29:59;;;;;;;8.20;3.92;;;;;;;;;;4941194;28;20447;-76
2023/01/20 14:32:32;;;;;;;15.20;4.85;;;;;;;;;;4948008;28;20125;-83
2023/01/20 14:34:58;;;;;;;;;;;;;;;;;;4965273;28;20026;-73
2023/01/20 14:37:26;;;;;;;9.73;4.20;;;;;;;;;;4966369;28;19925;-75
2023/01/20 14:39:53;;;;;;;9.45;3.97;;;;;;;;;;4960029;28;20037;-74
2023/01/20 14:42:21;;;;;;;5.88;3.63;;;;;;;;;;4970227;28;20026;-74
2023/01/20 14:44:48;;;;;;;13.82;5.22;;;;;;;;;;4965087;28;20073;-75
2023/01/20 14:47:14;;;;;;;15.23;5.43;;;;;;;;;;4947401;28;20062;-74
2023/01/20 14:49:42;;;;;;;11.13;4.82;;;;;;;;;;4959241;28;20531;-73
2023/01/20 14:52:13;;;;;;;9.75;5.30;;;;;;;;;;4960363;28;20042;-74
2023/01/20 14:54:45;;;;;;;10.25;4.55;;;;;;;;;;4947361;28;20035;-74
2023/01/20 14:57:30;;;;;;;15.80;5.00;;;;;;;;;;4949447;28;20043;-74
2023/01/20 15:00:14;;;;;;;9.57;4.50;;;;;;;;;;4934717;28;20047;-74
2023/01/20 15:02:43;;;;;;;10.88;5.30;;;;;;;;;;4953311;28;20042;-74